Time;durP1;ratioP1;P1;durP2;ratioP2;P2;SDS_P1;SDS_P2;PMS_P1;PMS_P2;Temp;Humidity;BMP_temperature;BMP_pressure;BME280_temperature;BME280_humidity;BME280_pressure;Samples;Min_cycle;Max_cycle;Signal;HPM_P1;HPM_P2
2021/03/27 00:01:34;;;;;;;1.53;0.83;;;;;;;;;;4389667;32;20134;-74
2021/03/27 00:04:03;;;;;;;3.67;1.10;;;;;;;;;;4390470;32;20134;-75
2021/03/27 00:06:44;;;;;;;4.27;1.07;;;;;;;;;;4389528;32;20245;-74
2021/03/27 00:09:15;;;;;;;1.93;1.30;;;;;;;;;;4389737;32;20173;-74
2021/03/27 00:11:46;;;;;;;4.63;1.40;;;;;;;;;;4389283;32;20422;-75
2021/03/27 00:14:13;;;;;;;5.67;1.53;;;;;;;;;;4389652;32;20134;-74
2021/03/27 00:16:42;;;;;;;5.93;1.70;;;;;;;;;;4389369;32;20138;-75
2021/03/27 00:19:14;;;;;;;4.67;2.10;;;;;;;;;;4378087;32;20166;-75
2021/03/27 00:21:47;;;;;;;10.43;2.43;;;;;;;;;;4392020;32;20134;-75
2021/03/27 00:24:29;;;;;;;10.57;3.33;;;;;;;;;;4392228;32;20135;-74
2021/03/27 00:27:00;;;;;;;9.57;2.87;;;;;;;;;;4392799;32;20135;-75
2021/03/27 00:29:30;;;;;;;9.27;3.50;;;;;;;;;;4393102;32;20200;-74
2021/03/27 00:31:59;;;;;;;8.50;3.23;;;;;;;;;;4378157;32;20230;-75
2021/03/27 00:34:27;;;;;;;6.33;3.67;;;;;;;;;;4392970;32;20139;-75
2021/03/27 00:36:55;;;;;;;6.77;3.90;;;;;;;;;;4392252;32;20585;-77
2021/03/27 00:39:20;;;;;;;6.67;4.20;;;;;;;;;;4377685;32;20246;-75
2021/03/27 00:42:04;;;;;;;7.50;3.40;;;;;;;;;;4379113;32;20575;-76
2021/03/27 00:44:31;;;;;;;4.47;1.80;;;;;;;;;;4392082;32;20154;-76
2021/03/27 00:47:03;;;;;;;4.53;1.03;;;;;;;;;;4391761;32;20196;-74
2021/03/27 00:49:32;;;;;;;4.00;1.10;;;;;;;;;;4377864;32;20467;-76
2021/03/27 00:52:03;;;;;;;3.47;1.10;;;;;;;;;;4392925;32;20151;-75
2021/03/27 00:54:30;;;;;;;4.03;0.83;;;;;;;;;;4391859;32;20134;-75
2021/03/27 00:57:03;;;;;;;5.67;1.10;;;;;;;;;;4391742;32;20170;-75
2021/03/27 00:59:44;;;;;;;3.37;1.20;;;;;;;;;;4392060;32;20539;-75
2021/03/27 01:02:11;;;;;;;3.70;1.17;;;;;;;;;;4392578;32;20161;-75
2021/03/27 01:04:38;;;;;;;4.37;1.00;;;;;;;;;;4391400;32;20230;-75
2021/03/27 01:07:05;;;;;;;1.50;0.87;;;;;;;;;;4377671;32;20162;-74
2021/03/27 01:09:33;;;;;;;2.70;1.10;;;;;;;;;;4377868;32;20178;-75
2021/03/27 01:12:02;;;;;;;2.50;1.27;;;;;;;;;;4377981;32;20162;-75
2021/03/27 01:14:28;;;;;;;2.90;1.20;;;;;;;;;;4391645;32;20192;-75
2021/03/27 01:16:55;;;;;;;6.20;1.70;;;;;;;;;;4377494;32;20652;-75
2021/03/27 01:19:41;;;;;;;4.27;1.87;;;;;;;;;;4391138;32;20174;-75
2021/03/27 01:22:08;;;;;;;6.03;1.83;;;;;;;;;;4391072;32;20178;-74
2021/03/27 01:24:33;;;;;;;3.77;2.13;;;;;;;;;;4377333;32;20484;-76
2021/03/27 01:27:03;;;;;;;9.13;3.07;;;;;;;;;;4392115;32;20135;-75
2021/03/27 01:29:37;;;;;;;6.70;3.57;;;;;;;;;;4377940;32;20170;-75
2021/03/27 01:32:09;;;;;;;14.93;4.87;;;;;;;;;;4377983;32;20170;-75
2021/03/27 01:34:37;;;;;;;13.97;5.20;;;;;;;;;;4377755;32;20597;-75
2021/03/27 01:37:14;;;;;;;15.40;6.70;;;;;;;;;;4377097;32;20158;-75
2021/03/27 01:39:51;;;;;;;17.33;7.83;;;;;;;;;;4391124;32;20155;-74
2021/03/27 01:42:20;;;;;;;16.00;7.40;;;;;;;;;;4378235;32;20188;-75
2021/03/27 01:44:46;;;;;;;21.87;7.87;;;;;;;;;;4377171;32;20217;-76
2021/03/27 01:47:29;;;;;;;17.47;6.83;;;;;;;;;;4391321;32;20165;-75
2021/03/27 01:49:59;;;;;;;14.03;6.40;;;;;;;;;;4390539;32;20234;-75
2021/03/27 01:52:27;;;;;;;17.10;6.40;;;;;;;;;;4391913;32;20208;-76
2021/03/27 01:54:59;;;;;;;16.73;5.90;;;;;;;;;;4391046;32;20161;-74
2021/03/27 01:57:34;;;;;;;9.93;4.87;;;;;;;;;;4391890;32;20159;-73
2021/03/27 02:00:13;;;;;;;13.03;5.23;;;;;;;;;;4376842;32;20248;-73
2021/03/27 02:02:47;;;;;;;12.17;4.60;;;;;;;;;;4391175;32;20170;-75
2021/03/27 02:05:20;;;;;;;15.30;5.17;;;;;;;;;;4391629;32;20462;-76
2021/03/27 02:07:57;;;;;;;12.27;4.67;;;;;;;;;;4391338;32;20631;-74
2021/03/27 02:10:29;;;;;;;15.70;4.00;;;;;;;;;;4390336;32;20569;-74
2021/03/27 02:13:04;;;;;;;11.37;3.93;;;;;;;;;;4391056;32;20142;-74
2021/03/27 02:15:33;;;;;;;10.47;4.53;;;;;;;;;;4390320;32;20142;-76
2021/03/27 02:18:03;;;;;;;16.23;3.73;;;;;;;;;;4390830;32;20160;-74
2021/03/27 02:20:48;;;;;;;11.43;3.40;;;;;;;;;;4376499;32;20184;-74
2021/03/27 02:23:19;;;;;;;13.90;3.57;;;;;;;;;;4368175;32;20700;-75
2021/03/27 02:26:03;;;;;;;7.80;3.30;;;;;;;;;;4390342;32;20130;-75
2021/03/27 02:28:47;;;;;;;10.27;3.33;;;;;;;;;;4390474;32;20142;-73
2021/03/27 02:31:21;;;;;;;10.00;3.37;;;;;;;;;;4390136;32;20155;-75
2021/03/27 02:34:07;;;;;;;12.50;3.47;;;;;;;;;;4389982;32;20141;-73
2021/03/27 02:36:48;;;;;;;9.80;3.33;;;;;;;;;;4338769;32;20543;-74
2021/03/27 02:39:16;;;;;;;7.97;3.17;;;;;;;;;;4390228;32;20474;-75
2021/03/27 02:41:47;;;;;;;14.97;3.80;;;;;;;;;;4390394;32;20245;-74
2021/03/27 02:44:20;;;;;;;12.63;3.30;;;;;;;;;;4391576;32;20208;-75
2021/03/27 02:46:46;;;;;;;14.30;3.50;;;;;;;;;;4390430;32;20203;-75
2021/03/27 02:49:14;;;;;;;12.47;3.00;;;;;;;;;;4391092;32;20544;-73
2021/03/27 02:51:43;;;;;;;12.67;2.90;;;;;;;;;;4390437;32;20138;-74
2021/03/27 02:54:18;;;;;;;6.50;2.47;;;;;;;;;;4390656;32;20543;-75
2021/03/27 02:56:49;;;;;;;12.23;3.10;;;;;;;;;;4390454;32;20134;-73
2021/03/27 02:59:30;;;;;;;21.17;3.53;;;;;;;;;;4390116;32;20139;-73
2021/03/27 03:02:01;;;;;;;16.17;4.00;;;;;;;;;;4390257;32;20142;-74
2021/03/27 03:04:35;;;;;;;10.13;2.83;;;;;;;;;;4389728;32;20210;-72
2021/03/27 03:07:03;;;;;;;13.33;3.23;;;;;;;;;;4391006;32;20137;-73
2021/03/27 03:09:40;;;;;;;10.43;3.00;;;;;;;;;;4389806;32;20151;-73
2021/03/27 03:12:24;;;;;;;10.40;3.20;;;;;;;;;;4390261;32;20548;-73
2021/03/27 03:14:52;;;;;;;13.67;2.87;;;;;;;;;;4389496;32;20577;-73
2021/03/27 03:17:35;;;;;;;11.83;2.60;;;;;;;;;;4389918;32;20177;-75
2021/03/27 03:20:14;;;;;;;15.00;2.90;;;;;;;;;;4390489;32;20134;-74
2021/03/27 03:22:45;;;;;;;17.47;2.83;;;;;;;;;;4390547;32;20188;-73
2021/03/27 03:25:12;;;;;;;10.70;2.17;;;;;;;;;;4390696;32;20515;-73
2021/03/27 03:27:45;;;;;;;11.97;2.67;;;;;;;;;;4390312;32;20138;-75
2021/03/27 03:30:10;;;;;;;11.13;2.07;;;;;;;;;;4389900;32;20151;-74
2021/03/27 03:32:35;;;;;;;8.53;2.07;;;;;;;;;;4389613;32;20154;-73
2021/03/27 03:35:10;;;;;;;15.77;2.30;;;;;;;;;;4390931;32;20542;-73
2021/03/27 03:37:49;;;;;;;7.70;1.90;;;;;;;;;;4390789;32;20192;-73
2021/03/27 03:40:33;;;;;;;12.30;1.80;;;;;;;;;;4389608;32;20150;-73
2021/03/27 03:43:21;;;;;;;8.80;2.03;;;;;;;;;;4389333;32;20165;-73
2021/03/27 03:45:55;;;;;;;7.67;1.93;;;;;;;;;;4379503;32;20204;-75
2021/03/27 03:48:21;;;;;;;12.17;2.03;;;;;;;;;;4390022;32;20142;-72
2021/03/27 03:50:50;;;;;;;12.97;2.13;;;;;;;;;;4389322;32;20174;-73
2021/03/27 03:53:21;;;;;;;9.67;1.50;;;;;;;;;;4393111;32;20321;-73
2021/03/27 03:55:49;;;;;;;11.17;1.90;;;;;;;;;;4392932;32;20539;-74
2021/03/27 03:58:19;;;;;;;10.57;1.80;;;;;;;;;;4393817;32;20168;-75
2021/03/27 04:00:48;;;;;;;9.33;1.80;;;;;;;;;;4392876;32;20127;-73
2021/03/27 04:03:30;;;;;;;9.87;1.87;;;;;;;;;;4393763;32;20160;-73
2021/03/27 04:05:58;;;;;;;14.07;2.23;;;;;;;;;;4378466;32;20166;-75
2021/03/27 04:08:29;;;;;;;9.23;1.90;;;;;;;;;;4392178;32;20214;-75
2021/03/27 04:10:55;;;;;;;7.00;1.77;;;;;;;;;;4393031;32;20142;-75
2021/03/27 04:13:26;;;;;;;12.13;1.80;;;;;;;;;;4392917;32;20130;-75
2021/03/27 04:16:02;;;;;;;11.60;2.07;;;;;;;;;;4392893;32;20161;-75
2021/03/27 04:18:33;;;;;;;14.70;1.90;;;;;;;;;;4392217;32;20519;-75
2021/03/27 04:21:10;;;;;;;12.23;2.20;;;;;;;;;;4392602;32;20155;-75
2021/03/27 04:23:39;;;;;;;10.23;1.77;;;;;;;;;;4392606;32;20223;-75
2021/03/27 04:26:04;;;;;;;13.97;1.90;;;;;;;;;;4392294;32;20158;-75
2021/03/27 04:28:45;;;;;;;8.30;1.60;;;;;;;;;;4391803;32;20158;-75
2021/03/27 04:31:30;;;;;;;16.03;2.23;;;;;;;;;;4378666;32;20262;-75
2021/03/27 04:34:11;;;;;;;12.67;1.97;;;;;;;;;;4379472;32;20247;-75
2021/03/27 04:36:46;;;;;;;12.70;2.70;;;;;;;;;;4392366;32;20169;-75
2021/03/27 04:39:15;;;;;;;10.83;2.27;;;;;;;;;;4391652;32;20268;-74
2021/03/27 04:41:40;;;;;;;12.83;2.53;;;;;;;;;;4392704;32;20203;-73
2021/03/27 04:44:20;;;;;;;10.93;2.00;;;;;;;;;;4391978;32;20182;-76
2021/03/27 04:47:05;;;;;;;8.97;2.17;;;;;;;;;;4392458;32;20253;-74
2021/03/27 04:50:03;;;;;;;13.07;2.00;;;;;;;;;;4391645;32;20170;-74
2021/03/27 04:52:28;;;;;;;13.67;2.40;;;;;;;;;;4357913;32;20163;-75
2021/03/27 04:54:56;;;;;;;10.80;1.83;;;;;;;;;;4392013;32;20241;-74
2021/03/27 04:57:30;;;;;;;11.10;1.87;;;;;;;;;;4378210;32;20225;-75
2021/03/27 05:00:14;;;;;;;12.20;2.13;;;;;;;;;;4392874;32;20165;-72
2021/03/27 05:02:58;;;;;;;12.30;1.90;;;;;;;;;;4392145;32;20213;-74
2021/03/27 05:05:26;;;;;;;12.33;2.10;;;;;;;;;;4392097;32;20138;-72
2021/03/27 05:07:59;;;;;;;8.87;1.70;;;;;;;;;;4391886;32;20455;-71
2021/03/27 05:10:30;;;;;;;7.33;1.43;;;;;;;;;;4391358;32;20209;-73
2021/03/27 05:13:12;;;;;;;5.07;1.30;;;;;;;;;;4391799;32;20134;-73
2021/03/27 05:15:43;;;;;;;4.90;1.13;;;;;;;;;;4391901;32;20143;-73
2021/03/27 05:18:15;;;;;;;6.23;1.23;;;;;;;;;;4377811;32;20162;-73
2021/03/27 05:20:41;;;;;;;5.40;0.90;;;;;;;;;;4391003;32;20134;-73
2021/03/27 05:23:14;;;;;;;7.13;1.20;;;;;;;;;;4377507;32;20193;-72
2021/03/27 05:25:58;;;;;;;7.93;1.27;;;;;;;;;;4378010;32;20166;-74
2021/03/27 05:28:26;;;;;;;3.40;1.23;;;;;;;;;;4392424;32;20255;-75
2021/03/27 05:31:02;;;;;;;5.07;1.23;;;;;;;;;;4391195;32;20532;-74
2021/03/27 05:33:39;;;;;;;8.07;1.17;;;;;;;;;;4392664;32;20161;-74
2021/03/27 05:36:28;;;;;;;3.27;1.10;;;;;;;;;;4391396;32;20190;-75
2021/03/27 05:39:03;;;;;;;11.17;1.93;;;;;;;;;;4376955;32;20599;-73
2021/03/27 05:41:41;;;;;;;7.80;1.60;;;;;;;;;;4391626;32;20142;-76
2021/03/27 05:44:30;;;;;;;8.83;1.40;;;;;;;;;;4390950;32;20174;-74
2021/03/27 05:46:58;;;;;;;5.53;1.33;;;;;;;;;;4391316;32;20204;-73
2021/03/27 05:49:47;;;;;;;6.57;1.30;;;;;;;;;;4390765;32;20154;-74
2021/03/27 05:52:18;;;;;;;11.83;1.73;;;;;;;;;;4391995;32;20543;-72
2021/03/27 05:55:02;;;;;;;8.50;1.50;;;;;;;;;;4392318;32;20189;-75
2021/03/27 05:57:30;;;;;;;10.77;1.50;;;;;;;;;;4376785;32;20166;-74
2021/03/27 06:00:13;;;;;;;10.43;1.80;;;;;;;;;;4390746;32;20529;-72
2021/03/27 06:02:45;;;;;;;10.40;2.10;;;;;;;;;;4392787;32;20269;-74
2021/03/27 06:05:10;;;;;;;6.70;1.80;;;;;;;;;;4390907;32;20134;-71
2021/03/27 06:07:48;;;;;;;10.40;1.87;;;;;;;;;;4390223;32;20138;-73
2021/03/27 06:10:20;;;;;;;7.97;1.73;;;;;;;;;;4391026;32;20534;-73
2021/03/27 06:13:10;;;;;;;12.03;2.30;;;;;;;;;;4385291;32;20177;-74
2021/03/27 06:16:07;;;;;;;15.10;2.03;;;;;;;;;;4375986;32;20147;-76
2021/03/27 06:18:41;;;;;;;8.03;1.97;;;;;;;;;;4375905;32;20166;-76
2021/03/27 06:21:16;;;;;;;10.30;2.10;;;;;;;;;;4377105;32;20503;-74
2021/03/27 06:24:05;;;;;;;7.03;1.83;;;;;;;;;;4375808;32;20589;-74
2021/03/27 06:26:34;;;;;;;8.73;2.00;;;;;;;;;;4361312;32;20171;-70
2021/03/27 06:29:24;;;;;;;9.30;1.83;;;;;;;;;;4375456;32;20175;-69
2021/03/27 06:32:06;;;;;;;11.60;2.10;;;;;;;;;;4376473;32;20139;-73
2021/03/27 06:34:43;;;;;;;10.33;2.60;;;;;;;;;;4376788;32;20135;-69
2021/03/27 06:37:27;;;;;;;11.13;2.30;;;;;;;;;;4374941;32;20493;-72
2021/03/27 06:40:11;;;;;;;15.73;1.97;;;;;;;;;;4374835;32;20213;-71
2021/03/27 06:42:41;;;;;;;10.67;1.93;;;;;;;;;;4375180;32;20197;-71
2021/03/27 06:45:22;;;;;;;14.47;2.20;;;;;;;;;;4376420;32;20547;-72
2021/03/27 06:48:04;;;;;;;11.27;2.33;;;;;;;;;;4374913;32;20127;-73
2021/03/27 06:50:37;;;;;;;13.17;2.10;;;;;;;;;;4374945;32;20158;-73
2021/03/27 06:53:08;;;;;;;8.93;1.67;;;;;;;;;;4375686;32;20134;-71
2021/03/27 06:55:38;;;;;;;13.60;1.90;;;;;;;;;;4375643;32;20223;-71
2021/03/27 06:58:22;;;;;;;13.17;2.30;;;;;;;;;;4375546;32;20138;-70
2021/03/27 07:00:50;;;;;;;13.67;1.93;;;;;;;;;;4361642;32;20292;-70
2021/03/27 07:03:30;;;;;;;9.37;1.93;;;;;;;;;;4361773;32;20466;-73
2021/03/27 07:05:58;;;;;;;13.67;2.47;;;;;;;;;;4374665;32;20150;-70
2021/03/27 07:08:29;;;;;;;12.97;2.30;;;;;;;;;;4375726;32;20162;-74
2021/03/27 07:10:54;;;;;;;13.57;2.50;;;;;;;;;;4375045;32;20194;-73
2021/03/27 07:13:19;;;;;;;17.23;2.40;;;;;;;;;;4375477;32;20169;-70
2021/03/27 07:16:23;;;;;;;21.50;2.63;;;;;;;;;;4361655;32;20288;-73
2021/03/27 07:19:02;;;;;;;16.30;2.60;;;;;;;;;;4331028;33;20565;-70
2021/03/27 07:21:52;;;;;;;17.13;2.70;;;;;;;;;;4343078;33;20140;-73
2021/03/27 07:24:23;;;;;;;12.00;2.30;;;;;;;;;;4352774;32;20189;-71
2021/03/27 07:27:08;;;;;;;11.37;2.10;;;;;;;;;;4375532;32;20165;-71
2021/03/27 07:29:52;;;;;;;12.00;2.20;;;;;;;;;;4378008;32;20196;-72
2021/03/27 07:32:32;;;;;;;16.70;2.60;;;;;;;;;;4376976;32;20543;-73
2021/03/27 07:35:33;;;;;;;16.30;2.50;;;;;;;;;;4378667;32;20188;-73
2021/03/27 07:38:07;;;;;;;10.67;1.80;;;;;;;;;;4330412;33;20180;-72
2021/03/27 07:40:51;;;;;;;12.43;2.00;;;;;;;;;;4369968;32;20159;-72
2021/03/27 07:43:16;;;;;;;9.40;2.10;;;;;;;;;;4392104;32;20674;-72
2021/03/27 07:46:04;;;;;;;11.07;2.00;;;;;;;;;;4392289;32;20138;-73
2021/03/27 07:48:41;;;;;;;15.93;2.30;;;;;;;;;;4357685;32;20624;-75
2021/03/27 07:51:15;;;;;;;14.20;2.37;;;;;;;;;;4378756;32;20236;-74
2021/03/27 07:53:53;;;;;;;9.13;1.60;;;;;;;;;;4377934;32;20157;-72
2021/03/27 07:56:34;;;;;;;8.00;2.00;;;;;;;;;;4391419;32;20135;-72
2021/03/27 07:59:15;;;;;;;10.03;1.60;;;;;;;;;;4378672;32;20127;-72
2021/03/27 08:01:52;;;;;;;10.90;1.87;;;;;;;;;;4376731;32;20520;-74
2021/03/27 08:04:29;;;;;;;11.17;1.80;;;;;;;;;;4363745;32;20223;-72
2021/03/27 08:06:57;;;;;;;12.60;1.83;;;;;;;;;;4376941;32;20536;-70
2021/03/27 08:09:40;;;;;;;12.17;2.10;;;;;;;;;;4376789;32;20143;-73
2021/03/27 08:12:18;;;;;;;7.43;1.67;;;;;;;;;;4376637;32;20189;-71
2021/03/27 08:14:58;;;;;;;13.63;1.80;;;;;;;;;;4376504;32;20134;-71
2021/03/27 08:17:29;;;;;;;10.07;1.97;;;;;;;;;;4376570;32;20165;-73
2021/03/27 08:20:07;;;;;;;9.57;1.97;;;;;;;;;;4363035;32;20575;-71
2021/03/27 08:22:51;;;;;;;10.43;1.90;;;;;;;;;;4377644;32;20196;-70
2021/03/27 08:25:20;;;;;;;10.47;1.73;;;;;;;;;;4363047;32;20223;-71
2021/03/27 08:27:52;;;;;;;12.17;2.10;;;;;;;;;;4362819;32;20186;-71
2021/03/27 08:30:32;;;;;;;15.50;1.93;;;;;;;;;;4376947;32;20146;-71
2021/03/27 08:33:16;;;;;;;13.13;2.17;;;;;;;;;;4362604;32;20513;-70
2021/03/27 08:35:51;;;;;;;7.83;1.87;;;;;;;;;;4376929;32;20297;-72
2021/03/27 08:38:35;;;;;;;8.77;1.50;;;;;;;;;;4362900;32;20263;-70
2021/03/27 08:41:13;;;;;;;6.33;1.50;;;;;;;;;;4376175;32;20146;-75
2021/03/27 08:44:09;;;;;;;9.77;1.80;;;;;;;;;;4387639;32;20181;-72
2021/03/27 08:46:56;;;;;;;7.63;1.63;;;;;;;;;;4391601;32;20130;-70
2021/03/27 08:49:35;;;;;;;9.63;1.87;;;;;;;;;;4391480;32;20142;-76
2021/03/27 08:52:18;;;;;;;8.20;1.93;;;;;;;;;;4391840;32;20487;-73
2021/03/27 08:55:03;;;;;;;8.40;1.60;;;;;;;;;;4377528;32;20200;-75
2021/03/27 08:57:28;;;;;;;9.30;1.60;;;;;;;;;;4390604;32;20183;-71
2021/03/27 09:00:05;;;;;;;4.83;1.20;;;;;;;;;;4390586;32;20130;-71
2021/03/27 09:02:46;;;;;;;8.70;1.60;;;;;;;;;;4376515;32;20659;-72
2021/03/27 09:05:16;;;;;;;10.07;1.40;;;;;;;;;;4362051;32;20162;-72
2021/03/27 09:07:51;;;;;;;7.73;1.27;;;;;;;;;;4363013;32;20189;-70
2021/03/27 09:10:19;;;;;;;6.83;1.50;;;;;;;;;;4376576;32;20177;-70
2021/03/27 09:13:20;;;;;;;9.07;1.70;;;;;;;;;;4362490;32;20193;-72
2021/03/27 09:15:45;;;;;;;9.63;1.60;;;;;;;;;;4359063;32;20190;-73
2021/03/27 09:18:29;;;;;;;8.87;1.40;;;;;;;;;;4372024;32;20158;-72
2021/03/27 09:21:13;;;;;;;8.60;1.63;;;;;;;;;;4361972;32;20242;-71
2021/03/27 09:23:57;;;;;;;6.97;2.00;;;;;;;;;;4362280;32;20193;-72
2021/03/27 09:26:51;;;;;;;10.90;1.70;;;;;;;;;;4376245;32;20139;-73
2021/03/27 09:29:32;;;;;;;12.13;2.40;;;;;;;;;;4371967;32;20283;-73
2021/03/27 09:32:01;;;;;;;6.80;1.73;;;;;;;;;;4375386;32;20563;-75
2021/03/27 09:34:49;;;;;;;9.63;1.70;;;;;;;;;;4361658;32;20263;-73
2021/03/27 09:37:17;;;;;;;9.13;1.43;;;;;;;;;;4361699;32;20614;-71
2021/03/27 09:40:04;;;;;;;11.80;1.97;;;;;;;;;;4361497;32;20163;-73
2021/03/27 09:42:42;;;;;;;10.70;1.63;;;;;;;;;;4362427;32;20225;-72
2021/03/27 09:45:26;;;;;;;9.63;1.37;;;;;;;;;;4375029;32;20466;-74
2021/03/27 09:48:09;;;;;;;9.30;2.13;;;;;;;;;;4379918;32;20142;-72
2021/03/27 09:50:35;;;;;;;9.43;1.80;;;;;;;;;;4374143;32;20267;-74
2021/03/27 09:53:03;;;;;;;10.33;1.70;;;;;;;;;;4391122;32;20142;-72
2021/03/27 09:55:40;;;;;;;6.53;1.60;;;;;;;;;;4376394;32;20229;-71
2021/03/27 09:58:21;;;;;;;9.60;1.77;;;;;;;;;;4376731;32;20170;-72
2021/03/27 10:00:50;;;;;;;8.97;1.80;;;;;;;;;;4376343;32;20295;-75
2021/03/27 10:03:34;;;;;;;11.80;1.63;;;;;;;;;;4376630;32;20185;-72
2021/03/27 10:06:08;;;;;;;8.43;1.73;;;;;;;;;;4390206;32;20143;-75
2021/03/27 10:08:39;;;;;;;8.70;1.77;;;;;;;;;;4373570;32;20246;-75
2021/03/27 10:11:04;;;;;;;9.93;1.90;;;;;;;;;;4391449;32;20131;-75
2021/03/27 10:13:32;;;;;;;7.87;1.43;;;;;;;;;;4376600;32;20193;-74
2021/03/27 10:16:00;;;;;;;6.67;1.60;;;;;;;;;;4390476;32;20213;-74
2021/03/27 10:18:38;;;;;;;6.50;1.50;;;;;;;;;;4390347;32;20570;-74
2021/03/27 10:21:06;;;;;;;10.23;1.77;;;;;;;;;;4390451;32;20133;-76
2021/03/27 10:23:35;;;;;;;8.13;1.77;;;;;;;;;;4376909;32;20158;-73
2021/03/27 10:26:03;;;;;;;14.07;2.20;;;;;;;;;;4376802;32;20297;-73
2021/03/27 10:28:34;;;;;;;5.80;1.80;;;;;;;;;;4389954;32;20138;-74
2021/03/27 10:31:06;;;;;;;9.02;1.60;;;;;;;;;;4375927;32;20165;-74
2021/03/27 10:33:40;;;;;;;9.00;2.07;;;;;;;;;;4390109;32;20188;-70
2021/03/27 10:36:21;;;;;;;5.37;1.53;;;;;;;;;;4389896;32;20620;-73
2021/03/27 10:38:55;;;;;;;9.80;1.90;;;;;;;;;;4391185;32;20514;-76
2021/03/27 10:41:20;;;;;;;12.90;2.03;;;;;;;;;;4391612;32;20206;-77
2021/03/27 10:43:46;;;;;;;11.77;1.80;;;;;;;;;;4390035;32;20201;-73
2021/03/27 10:46:20;;;;;;;13.27;2.40;;;;;;;;;;4376064;32;20166;-75
2021/03/27 10:49:21;;;;;;;9.43;2.23;;;;;;;;;;4375980;32;20228;-75
2021/03/27 10:52:05;;;;;;;5.60;1.60;;;;;;;;;;4316221;33;20273;-76
2021/03/27 10:54:33;;;;;;;11.03;1.77;;;;;;;;;;4370333;32;20200;-75
2021/03/27 10:57:04;;;;;;;10.77;1.63;;;;;;;;;;4390180;32;20143;-76
2021/03/27 10:59:41;;;;;;;11.27;1.73;;;;;;;;;;4389571;32;20442;-76
2021/03/27 11:02:18;;;;;;;8.73;1.87;;;;;;;;;;4375409;32;20197;-75
2021/03/27 11:05:10;;;;;;;9.43;1.53;;;;;;;;;;4389514;32;20168;-75
2021/03/27 11:07:50;;;;;;;7.17;1.83;;;;;;;;;;4371741;32;20557;-71
2021/03/27 11:10:34;;;;;;;9.30;1.40;;;;;;;;;;4390524;32;20153;-71
2021/03/27 11:13:19;;;;;;;8.70;2.17;;;;;;;;;;4375398;32;20174;-74
2021/03/27 11:16:03;;;;;;;14.00;2.47;;;;;;;;;;4390565;32;20466;-73
2021/03/27 11:18:40;;;;;;;8.73;1.97;;;;;;;;;;4375191;32;20530;-71
2021/03/27 11:21:05;;;;;;;9.00;2.00;;;;;;;;;;4375078;32;20174;-72
2021/03/27 11:23:30;;;;;;;8.10;1.97;;;;;;;;;;4375396;32;20445;-73
2021/03/27 11:26:14;;;;;;;12.35;2.00;;;;;;;;;;4389495;32;20638;-71
2021/03/27 11:28:39;;;;;;;10.63;1.75;;;;;;;;;;4388880;32;20200;-72
2021/03/27 11:31:12;;;;;;;9.20;1.90;;;;;;;;;;4389684;32;20139;-72
2021/03/27 11:33:41;;;;;;;11.50;1.97;;;;;;;;;;4388696;32;20300;-71
2021/03/27 11:36:06;;;;;;;14.63;2.30;;;;;;;;;;4375382;32;20551;-74
2021/03/27 11:38:40;;;;;;;13.25;1.80;;;;;;;;;;4388925;32;20479;-74
2021/03/27 11:41:12;;;;;;;10.38;1.95;;;;;;;;;;4375130;32;20166;-72
2021/03/27 11:43:43;;;;;;;9.23;1.85;;;;;;;;;;4389640;32;20164;-73
2021/03/27 11:46:17;;;;;;;10.50;1.85;;;;;;;;;;4389398;32;20134;-72
2021/03/27 11:48:48;;;;;;;12.63;2.35;;;;;;;;;;4375771;32;20174;-71
2021/03/27 11:51:19;;;;;;;10.98;2.12;;;;;;;;;;4388652;32;20200;-71
2021/03/27 11:53:44;;;;;;;10.35;1.85;;;;;;;;;;4388521;32;20165;-70
2021/03/27 11:56:22;;;;;;;8.55;1.62;;;;;;;;;;4381467;32;20154;-72
2021/03/27 12:01:48;;;;;;;12.82;1.77;;;;;;;;;;4375175;32;20146;-73
2021/03/27 12:04:46;;;;;;;10.77;1.70;;;;;;;;;;4360428;32;20181;-72
2021/03/27 12:07:15;;;;;;;13.57;2.10;;;;;;;;;;4343777;32;20548;-73
2021/03/27 12:10:02;;;;;;;8.20;1.77;;;;;;;;;;4360695;32;20257;-73
2021/03/27 12:12:30;;;;;;;7.57;1.73;;;;;;;;;;4361310;32;20202;-76
2021/03/27 12:14:57;;;;;;;12.73;2.20;;;;;;;;;;4363050;32;20178;-75
2021/03/27 12:17:36;;;;;;;12.53;2.00;;;;;;;;;;4390752;32;20146;-72
2021/03/27 12:20:20;;;;;;;10.82;1.62;;;;;;;;;;4377634;32;20182;-73
2021/03/27 12:22:47;;;;;;;11.57;1.77;;;;;;;;;;4392601;32;20173;-76
2021/03/27 12:25:48;;;;;;;9.90;2.20;;;;;;;;;;4378128;32;20169;-72
2021/03/27 12:28:20;;;;;;;11.33;2.20;;;;;;;;;;4333010;33;20198;-73
2021/03/27 12:31:01;;;;;;;10.00;2.07;;;;;;;;;;4370633;32;20583;-72
2021/03/27 12:33:26;;;;;;;9.43;1.70;;;;;;;;;;4389116;32;20213;-76
2021/03/27 12:35:57;;;;;;;6.07;1.80;;;;;;;;;;4391004;32;20197;-76
2021/03/27 12:38:26;;;;;;;12.97;1.90;;;;;;;;;;4388554;32;20367;-74
2021/03/27 12:40:57;;;;;;;12.63;2.27;;;;;;;;;;4390731;32;20198;-74
2021/03/27 12:43:24;;;;;;;13.23;2.30;;;;;;;;;;4390035;32;20204;-77
2021/03/27 12:46:17;;;;;;;12.03;2.00;;;;;;;;;;4389648;32;20265;-73
2021/03/27 12:48:45;;;;;;;15.30;2.70;;;;;;;;;;4392154;32;20159;-73
2021/03/27 12:51:10;;;;;;;12.30;2.43;;;;;;;;;;4391823;32;20196;-73
2021/03/27 12:53:39;;;;;;;9.83;1.80;;;;;;;;;;4391160;32;20190;-73
2021/03/27 12:56:29;;;;;;;12.47;2.20;;;;;;;;;;4390238;32;20227;-75
2021/03/27 12:59:01;;;;;;;13.00;2.17;;;;;;;;;;4389471;32;20220;-71
2021/03/27 13:01:41;;;;;;;10.15;2.03;;;;;;;;;;4388570;32;20225;-76
2021/03/27 13:04:25;;;;;;;9.73;2.10;;;;;;;;;;4377381;32;20217;-71
2021/03/27 13:07:11;;;;;;;12.13;1.83;;;;;;;;;;4376886;32;20598;-76
2021/03/27 13:09:55;;;;;;;11.68;2.10;;;;;;;;;;4377092;32;20204;-76
2021/03/27 13:12:29;;;;;;;11.23;2.42;;;;;;;;;;4381437;32;20196;-73
2021/03/27 13:15:10;;;;;;;11.03;2.57;;;;;;;;;;4407868;32;20141;-73
2021/03/27 13:17:54;;;;;;;9.10;2.00;;;;;;;;;;4406500;32;20206;-74
2021/03/27 13:20:42;;;;;;;11.82;2.28;;;;;;;;;;4391538;32;20178;-76
2021/03/27 13:23:21;;;;;;;15.15;2.30;;;;;;;;;;4395421;32;20638;-74
2021/03/27 13:25:57;;;;;;;12.77;2.00;;;;;;;;;;4391522;32;20213;-76
2021/03/27 13:28:22;;;;;;;14.05;2.70;;;;;;;;;;4405603;32;20763;-75
2021/03/27 13:30:48;;;;;;;10.82;2.00;;;;;;;;;;4391894;32;20308;-75
2021/03/27 13:33:32;;;;;;;9.82;1.98;;;;;;;;;;4390857;32;20166;-72
2021/03/27 13:36:03;;;;;;;13.90;1.90;;;;;;;;;;4376176;32;20182;-74
2021/03/27 13:38:57;;;;;;;9.50;1.80;;;;;;;;;;4376292;32;20497;-73
2021/03/27 13:41:25;;;;;;;12.97;2.00;;;;;;;;;;4373461;32;20201;-76
2021/03/27 13:44:03;;;;;;;9.80;1.73;;;;;;;;;;4389617;32;20546;-75
2021/03/27 13:46:34;;;;;;;8.85;2.37;;;;;;;;;;4389793;32;20138;-73
2021/03/27 13:49:12;;;;;;;6.28;2.12;;;;;;;;;;4376052;32;20162;-74
2021/03/27 13:51:52;;;;;;;11.23;2.00;;;;;;;;;;4376217;32;20162;-72
2021/03/27 13:54:29;;;;;;;11.60;2.33;;;;;;;;;;4390611;32;20173;-74
2021/03/27 13:56:59;;;;;;;9.02;2.20;;;;;;;;;;4376396;32;20230;-74
2021/03/27 13:59:27;;;;;;;10.27;1.87;;;;;;;;;;4376198;32;20186;-73
2021/03/27 14:02:11;;;;;;;9.27;2.20;;;;;;;;;;4389835;32;20158;-74
2021/03/27 14:04:38;;;;;;;9.70;1.90;;;;;;;;;;4376029;32;20289;-73
2021/03/27 14:07:31;;;;;;;8.20;2.17;;;;;;;;;;4389615;32;20158;-74
2021/03/27 14:09:57;;;;;;;12.57;2.25;;;;;;;;;;4374069;32;20209;-73
2021/03/27 14:12:29;;;;;;;11.80;2.05;;;;;;;;;;4375314;32;20900;-75
2021/03/27 14:14:57;;;;;;;7.62;1.50;;;;;;;;;;4389064;32;20189;-72
2021/03/27 14:17:30;;;;;;;8.10;1.63;;;;;;;;;;4388305;32;20189;-73
2021/03/27 14:20:10;;;;;;;11.12;2.30;;;;;;;;;;4388851;32;20142;-73
2021/03/27 14:22:54;;;;;;;11.77;2.22;;;;;;;;;;4386942;32;20178;-74
2021/03/27 14:25:36;;;;;;;5.65;1.70;;;;;;;;;;4374983;32;20142;-72
2021/03/27 14:28:18;;;;;;;10.50;1.87;;;;;;;;;;4381488;32;20149;-75
2021/03/27 14:31:02;;;;;;;6.15;1.92;;;;;;;;;;4389573;32;20165;-75
2021/03/27 14:33:41;;;;;;;9.35;1.77;;;;;;;;;;4389378;32;20130;-74
2021/03/27 14:36:19;;;;;;;10.70;2.45;;;;;;;;;;4375263;32;20166;-72
2021/03/27 14:39:03;;;;;;;8.95;1.80;;;;;;;;;;4374287;32;20230;-76
2021/03/27 14:41:41;;;;;;;12.20;2.42;;;;;;;;;;4374802;32;20244;-73
2021/03/27 14:44:21;;;;;;;12.23;2.62;;;;;;;;;;4360672;32;20249;-73
2021/03/27 14:47:05;;;;;;;11.05;1.80;;;;;;;;;;4360366;32;20251;-74
2021/03/27 14:49:43;;;;;;;9.27;1.70;;;;;;;;;;4360788;32;20193;-71
2021/03/27 14:52:28;;;;;;;9.33;1.73;;;;;;;;;;4375865;32;20184;-73
2021/03/27 14:55:12;;;;;;;12.67;2.27;;;;;;;;;;4364158;32;20667;-75
2021/03/27 14:57:42;;;;;;;11.60;2.37;;;;;;;;;;4362865;32;20189;-71
2021/03/27 15:00:22;;;;;;;5.53;1.87;;;;;;;;;;4376206;32;20236;-76
2021/03/27 15:03:06;;;;;;;11.70;2.00;;;;;;;;;;4390062;32;20447;-75
2021/03/27 15:05:34;;;;;;;9.57;2.20;;;;;;;;;;4389288;32;20194;-70
2021/03/27 15:08:00;;;;;;;11.70;2.33;;;;;;;;;;4390771;32;20138;-71
2021/03/27 15:10:40;;;;;;;12.07;2.23;;;;;;;;;;4389179;32;20331;-75
2021/03/27 15:13:24;;;;;;;12.40;1.90;;;;;;;;;;4375718;32;20174;-73
2021/03/27 15:15:59;;;;;;;12.25;2.15;;;;;;;;;;4388999;32;20172;-72
2021/03/27 15:18:44;;;;;;;15.65;2.20;;;;;;;;;;4375546;32;20181;-71
2021/03/27 15:21:12;;;;;;;6.72;1.95;;;;;;;;;;4376800;32;20169;-73
2021/03/27 15:23:40;;;;;;;10.63;2.20;;;;;;;;;;4375795;32;20224;-76
2021/03/27 15:29:09;;;;;;;9.57;2.12;;;;;;;;;;4389107;32;20200;-76
2021/03/27 15:31:39;;;;;;;8.32;2.17;;;;;;;;;;4389605;32;20519;-74